createdAt,value
2023-02-12T00:02:03.525Z,64.61
2023-02-12T00:04:30.324Z,64.10
2023-02-12T00:06:56.933Z,64.23
2023-02-12T00:09:23.529Z,64.47
2023-02-12T00:11:50.233Z,64.39
2023-02-12T00:14:16.994Z,63.88
2023-02-12T00:16:43.706Z,63.84
2023-02-12T00:19:10.423Z,64.26
2023-02-12T00:21:37.093Z,63.83
2023-02-12T00:24:04.164Z,64.07
2023-02-12T00:26:30.953Z,64.31
2023-02-12T00:28:57.614Z,64.01
2023-02-12T00:31:28.350Z,64.37
2023-02-12T00:33:56.626Z,64.36
2023-02-12T00:36:26.112Z,64.54
2023-02-12T00:38:54.811Z,64.56
2023-02-12T00:41:22.610Z,64.37
2023-02-12T00:43:50.380Z,64.71
2023-02-12T00:46:17.321Z,64.79
2023-02-12T00:48:44.282Z,65.31
2023-02-12T00:51:11.011Z,65.16
2023-02-12T00:53:38.006Z,65.02
2023-02-12T00:56:04.956Z,65.20
2023-02-12T00:58:31.753Z,65.61
2023-02-12T01:00:59.496Z,65.39
2023-02-12T01:03:26.212Z,65.06
2023-02-12T01:05:54.018Z,64.92
2023-02-12T01:08:21.949Z,65.12
2023-02-12T01:11:04.077Z,65.26
2023-02-12T01:13:31.817Z,65.39
2023-02-12T01:16:10.884Z,65.00
2023-02-12T01:18:38.050Z,64.92
2023-02-12T01:21:11.557Z,65.08
2023-02-12T01:23:38.466Z,65.06
2023-02-12T01:26:05.342Z,64.96
2023-02-12T01:28:32.027Z,64.45
2023-02-12T01:30:58.796Z,64.80
2023-02-12T01:33:26.997Z,64.85
2023-02-12T01:35:54.930Z,64.46
2023-02-12T01:38:21.815Z,65.02
2023-02-12T01:40:48.543Z,64.58
2023-02-12T01:43:15.181Z,65.11
2023-02-12T01:45:50.803Z,64.88
2023-02-12T01:48:20.369Z,64.72
2023-02-12T01:50:49.088Z,64.71
2023-02-12T01:53:20.223Z,64.60
2023-02-12T01:55:48.860Z,64.94
2023-02-12T01:58:16.267Z,65.78
2023-02-12T02:00:43.464Z,65.10
2023-02-12T02:03:10.300Z,64.99
2023-02-12T02:05:45.716Z,65.00
2023-02-12T02:08:13.154Z,65.15
2023-02-12T02:10:39.899Z,64.80
2023-02-12T02:13:26.136Z,65.11
2023-02-12T02:15:59.866Z,64.69
2023-02-12T02:18:43.260Z,64.63
2023-02-12T02:21:41.905Z,64.83
2023-02-12T02:24:47.353Z,64.26
2023-02-12T02:27:23.480Z,64.48
2023-02-12T02:30:23.931Z,64.36
2023-02-12T02:33:24.461Z,64.22
2023-02-12T02:36:02.983Z,64.10
2023-02-12T02:39:00.812Z,64.10
2023-02-12T02:41:38.987Z,64.40
2023-02-12T02:44:14.965Z,64.43
2023-02-12T02:46:48.681Z,64.47
2023-02-12T02:49:25.299Z,64.59
2023-02-12T02:51:59.454Z,64.56
2023-02-12T02:54:32.242Z,64.59
2023-02-12T02:57:06.962Z,64.43
2023-02-12T02:59:40.078Z,63.99
2023-02-12T03:02:12.725Z,63.82
2023-02-12T03:04:46.103Z,64.12
2023-02-12T03:07:38.321Z,63.75
2023-02-12T03:10:15.868Z,63.58
2023-02-12T03:13:08.185Z,64.07
2023-02-12T03:15:39.943Z,63.67
2023-02-12T03:18:12.757Z,64.15
2023-02-12T03:20:48.704Z,63.94
2023-02-12T03:23:23.464Z,64.29
2023-02-12T03:25:57.079Z,64.26
2023-02-12T03:28:31.369Z,63.73
2023-02-12T03:31:22.276Z,63.92
2023-02-12T03:34:07.299Z,64.03
2023-02-12T03:36:56.759Z,63.75
2023-02-12T03:39:43.556Z,63.95
2023-02-12T03:42:18.209Z,63.74
2023-02-12T03:44:44.798Z,63.34
2023-02-12T03:47:21.071Z,63.56
2023-02-12T03:50:18.000Z,63.38
2023-02-12T03:52:46.319Z,63.60
2023-02-12T03:55:16.409Z,63.71
2023-02-12T03:57:47.859Z,63.36
2023-02-12T04:00:22.112Z,63.75
2023-02-12T04:02:48.944Z,63.42
2023-02-12T04:05:20.182Z,63.69
2023-02-12T04:07:47.198Z,63.71
2023-02-12T04:10:14.444Z,63.17
2023-02-12T04:12:52.152Z,63.71
2023-02-12T04:15:37.425Z,63.32
2023-02-12T04:18:10.439Z,63.23
2023-02-12T04:21:06.751Z,63.22
2023-02-12T04:23:55.107Z,63.89
2023-02-12T04:26:33.580Z,63.55
2023-02-12T04:29:18.926Z,63.27
2023-02-12T04:31:48.452Z,63.15
2023-02-12T04:34:44.152Z,63.45
2023-02-12T04:37:34.089Z,63.55
2023-02-12T04:40:06.204Z,63.68
2023-02-12T04:42:44.996Z,63.91
2023-02-12T04:45:13.863Z,63.84
2023-02-12T04:47:40.641Z,64.12
2023-02-12T04:50:08.169Z,64.01
2023-02-12T04:52:34.854Z,63.83
2023-02-12T04:55:01.494Z,64.23
2023-02-12T04:57:28.195Z,64.20
2023-02-12T04:59:54.987Z,64.48
2023-02-12T05:02:21.704Z,64.48
2023-02-12T05:04:50.217Z,64.65
2023-02-12T05:07:17.153Z,64.84
2023-02-12T05:09:43.833Z,65.27
2023-02-12T05:12:10.510Z,65.26
2023-02-12T05:14:37.304Z,65.39
2023-02-12T05:17:03.924Z,64.99
2023-02-12T05:19:30.663Z,65.17
2023-02-12T05:21:57.284Z,65.25
2023-02-12T05:24:23.904Z,65.08
2023-02-12T05:26:50.742Z,65.00
2023-02-12T05:29:18.162Z,65.33
2023-02-12T05:31:45.370Z,64.64
2023-02-12T05:34:12.919Z,64.87
2023-02-12T05:36:40.030Z,65.05
2023-02-12T05:39:07.418Z,64.95
2023-02-12T05:41:37.664Z,65.32
2023-02-12T05:44:06.422Z,64.90
2023-02-12T05:46:33.379Z,64.53
2023-02-12T05:49:00.102Z,65.50
2023-02-12T05:51:27.295Z,65.33
2023-02-12T05:53:59.903Z,65.45
2023-02-12T05:56:41.524Z,65.63
2023-02-12T05:59:15.845Z,65.78
2023-02-12T06:01:44.598Z,65.42
2023-02-12T06:04:24.368Z,65.37
2023-02-12T06:06:52.707Z,65.40
2023-02-12T06:09:19.620Z,65.74
2023-02-12T06:11:46.320Z,65.57
2023-02-12T06:14:16.542Z,64.97
2023-02-12T06:16:48.482Z,65.23
2023-02-12T06:19:15.793Z,65.67
2023-02-12T06:21:42.405Z,65.75
2023-02-12T06:24:12.176Z,65.74
2023-02-12T06:26:38.978Z,65.46
2023-02-12T06:29:05.734Z,65.03
2023-02-12T06:31:35.676Z,65.01
2023-02-12T06:34:05.918Z,64.80
2023-02-12T06:36:32.954Z,64.89
2023-02-12T06:39:01.887Z,64.48
2023-02-12T06:41:28.805Z,64.46
2023-02-12T06:43:55.567Z,64.82
2023-02-12T06:46:22.598Z,65.35
2023-02-12T06:48:53.676Z,65.43
2023-02-12T06:51:22.947Z,64.87
2023-02-12T06:53:50.994Z,64.88
2023-02-12T06:56:19.070Z,65.32
2023-02-12T06:58:48.272Z,65.32
2023-02-12T07:01:21.522Z,65.73
2023-02-12T07:03:56.845Z,65.14
2023-02-12T07:06:24.854Z,65.61
2023-02-12T07:08:51.557Z,65.65
2023-02-12T07:11:18.919Z,65.99
2023-02-12T07:13:45.861Z,65.35
2023-02-12T07:16:15.093Z,65.65
2023-02-12T07:18:43.344Z,65.35
2023-02-12T07:21:12.005Z,65.29
2023-02-12T07:23:39.437Z,65.09
2023-02-12T07:26:14.001Z,65.28
2023-02-12T07:28:41.980Z,65.39
2023-02-12T07:31:09.925Z,65.27
2023-02-12T07:33:37.663Z,65.41
2023-02-12T07:36:06.289Z,64.73
2023-02-12T07:38:35.924Z,64.78
2023-02-12T07:41:10.873Z,64.69
2023-02-12T07:43:39.568Z,64.45
2023-02-12T07:46:12.226Z,64.18
2023-02-12T07:48:39.236Z,63.63
2023-02-12T07:51:11.430Z,63.92
2023-02-12T07:53:38.527Z,63.48
2023-02-12T07:56:13.849Z,63.34
2023-02-12T07:58:42.603Z,63.01
2023-02-12T08:01:33.644Z,62.14
2023-02-12T08:04:16.058Z,61.26
2023-02-12T08:06:48.421Z,60.62
2023-02-12T08:09:20.637Z,60.53
2023-02-12T08:11:47.736Z,59.81
2023-02-12T08:14:16.970Z,59.97
2023-02-12T08:16:45.025Z,59.85
2023-02-12T08:19:19.470Z,59.49
2023-02-12T08:21:52.387Z,59.37
2023-02-12T08:24:19.421Z,58.82
2023-02-12T08:26:46.142Z,58.76
2023-02-12T08:29:18.794Z,59.45
2023-02-12T08:31:48.967Z,58.86
2023-02-12T08:34:21.573Z,58.05
2023-02-12T08:36:50.486Z,57.37
2023-02-12T08:39:18.705Z,56.83
2023-02-12T08:41:46.337Z,56.75
2023-02-12T08:44:14.194Z,56.60
2023-02-12T08:46:46.749Z,57.06
2023-02-12T08:49:22.503Z,57.23
2023-02-12T08:51:54.307Z,56.06
2023-02-12T08:54:23.880Z,54.47
2023-02-12T08:56:54.122Z,53.76
2023-02-12T08:59:20.806Z,52.61
2023-02-12T09:01:51.400Z,52.91
2023-02-12T09:04:27.625Z,53.91
2023-02-12T09:06:54.723Z,54.86
2023-02-12T09:09:21.758Z,54.75
2023-02-12T09:11:49.460Z,55.34
2023-02-12T09:14:18.790Z,55.94
2023-02-12T09:16:45.959Z,56.50
2023-02-12T09:19:13.874Z,57.99
2023-02-12T09:21:41.111Z,58.03
2023-02-12T09:24:08.566Z,58.41
2023-02-12T09:26:35.520Z,58.39
2023-02-12T09:29:04.151Z,58.58
2023-02-12T09:31:32.838Z,58.83
2023-02-12T09:34:05.567Z,58.15
2023-02-12T09:36:33.510Z,57.87
2023-02-12T09:39:00.770Z,58.55
2023-02-12T09:41:47.591Z,58.10
2023-02-12T09:44:21.703Z,58.10
2023-02-12T09:47:06.868Z,59.18
2023-02-12T09:49:56.551Z,59.34
2023-02-12T09:52:27.471Z,59.94
2023-02-12T09:54:54.985Z,59.81
2023-02-12T09:57:33.361Z,60.05
2023-02-12T10:00:05.125Z,60.00
2023-02-12T10:02:34.845Z,61.06
2023-02-12T10:05:02.607Z,61.21
2023-02-12T10:07:43.583Z,61.09
2023-02-12T10:10:33.245Z,61.34
2023-02-12T10:13:13.012Z,61.20
2023-02-12T10:16:05.921Z,60.00
2023-02-12T10:18:47.911Z,60.15
2023-02-12T10:21:42.515Z,60.08
2023-02-12T10:24:31.091Z,60.19
2023-02-12T10:27:03.070Z,60.18
2023-02-12T10:29:34.787Z,60.11
2023-02-12T10:32:13.304Z,60.49
2023-02-12T10:34:42.581Z,60.68
2023-02-12T10:37:27.217Z,60.55
2023-02-12T10:40:17.941Z,60.86
2023-02-12T10:42:48.968Z,61.15
2023-02-12T10:45:22.357Z,61.70
2023-02-12T10:47:54.592Z,61.31
2023-02-12T10:50:33.677Z,61.46
2023-02-12T10:53:03.409Z,61.09
2023-02-12T10:55:32.273Z,61.12
2023-02-12T10:58:01.431Z,61.25
2023-02-12T11:00:36.739Z,61.95
2023-02-12T11:03:12.511Z,61.96
2023-02-12T11:05:41.860Z,61.58
2023-02-12T11:08:26.389Z,61.93
2023-02-12T11:10:53.251Z,62.09
2023-02-12T11:13:27.865Z,62.56
2023-02-12T11:15:55.362Z,61.69
2023-02-12T11:18:28.210Z,61.67
2023-02-12T11:21:09.936Z,60.90
2023-02-12T11:23:42.031Z,60.76
2023-02-12T11:26:17.517Z,60.50
2023-02-12T11:28:54.839Z,59.96
2023-02-12T11:31:30.008Z,59.77
2023-02-12T11:34:07.816Z,59.36
2023-02-12T11:36:41.506Z,59.36
2023-02-12T11:39:18.170Z,59.45
2023-02-12T11:41:45.049Z,59.82
2023-02-12T11:44:18.124Z,59.75
2023-02-12T11:46:50.978Z,58.98
2023-02-12T11:49:25.223Z,59.11
2023-02-12T11:51:52.669Z,59.04
2023-02-12T11:54:33.935Z,59.01
2023-02-12T11:57:00.597Z,58.30
2023-02-12T11:59:36.877Z,59.23
2023-02-12T12:02:30.354Z,59.59
2023-02-12T12:05:08.061Z,60.16
2023-02-12T12:07:39.039Z,60.07
2023-02-12T12:10:25.729Z,60.01
2023-02-12T12:12:59.685Z,59.59
2023-02-12T12:15:49.288Z,59.88
2023-02-12T12:19:19.974Z,59.56
2023-02-12T12:22:27.985Z,59.39
2023-02-12T12:25:06.387Z,58.99
2023-02-12T12:28:03.134Z,58.30
2023-02-12T12:30:53.096Z,57.78
2023-02-12T12:33:30.698Z,57.35
2023-02-12T12:36:25.849Z,56.54
2023-02-12T12:38:58.421Z,56.52
2023-02-12T12:41:59.712Z,55.95
2023-02-12T12:44:40.427Z,55.72
2023-02-12T12:47:17.478Z,56.09
2023-02-12T12:50:00.339Z,56.33
2023-02-12T12:52:52.765Z,56.60
2023-02-12T12:55:50.283Z,56.00
2023-02-12T12:58:55.826Z,55.71
2023-02-12T13:01:50.684Z,55.82
2023-02-12T13:04:39.996Z,55.04
2023-02-12T13:07:25.054Z,55.36
2023-02-12T13:10:07.844Z,55.14
2023-02-12T13:13:06.896Z,54.78
2023-02-12T13:15:44.234Z,54.53
2023-02-12T13:18:10.815Z,54.64
2023-02-12T13:21:04.135Z,54.29
2023-02-12T13:23:37.804Z,53.91
2023-02-12T13:26:31.788Z,54.73
2023-02-12T13:29:09.842Z,54.79
2023-02-12T13:31:45.351Z,54.68
2023-02-12T13:34:15.053Z,55.01
2023-02-12T13:36:42.550Z,55.26
2023-02-12T13:39:18.793Z,54.89
2023-02-12T13:41:55.208Z,54.66
2023-02-12T13:44:40.772Z,55.55
2023-02-12T13:47:21.309Z,55.54
2023-02-12T13:50:10.861Z,56.28
2023-02-12T13:52:49.574Z,56.30
2023-02-12T13:55:29.190Z,56.38
2023-02-12T13:58:39.696Z,56.46
2023-02-12T14:01:10.766Z,56.15
2023-02-12T14:03:38.794Z,55.48
2023-02-12T14:06:13.146Z,55.72
2023-02-12T14:08:47.034Z,55.28
2023-02-12T14:11:17.278Z,54.65
2023-02-12T14:14:04.129Z,54.39
2023-02-12T14:16:30.708Z,54.82
2023-02-12T14:19:34.820Z,54.55
2023-02-12T14:22:02.856Z,54.81
2023-02-12T14:24:38.532Z,55.36
2023-02-12T14:27:17.445Z,55.39
2023-02-12T14:30:09.013Z,55.39
2023-02-12T14:32:55.232Z,55.32
2023-02-12T14:35:33.925Z,55.63
2023-02-12T14:38:03.685Z,55.86
2023-02-12T14:40:33.031Z,55.45
2023-02-12T14:43:01.877Z,55.19
2023-02-12T14:45:36.223Z,55.22
2023-02-12T14:48:05.074Z,55.32
2023-02-12T14:50:39.537Z,55.14
2023-02-12T14:53:22.288Z,55.67
2023-02-12T14:55:49.746Z,55.60
2023-02-12T14:58:20.434Z,55.01
2023-02-12T15:00:50.729Z,55.93
2023-02-12T15:03:30.580Z,55.80
2023-02-12T15:06:09.988Z,55.95
2023-02-12T15:08:55.138Z,56.04
2023-02-12T15:11:54.207Z,55.51
2023-02-12T15:14:39.982Z,55.50
2023-02-12T15:17:20.958Z,55.39
2023-02-12T15:20:02.693Z,55.34
2023-02-12T15:22:40.483Z,55.73
2023-02-12T15:25:27.166Z,55.75
2023-02-12T15:28:02.238Z,56.06
2023-02-12T15:30:35.945Z,56.27
2023-02-12T15:33:06.844Z,55.94
2023-02-12T15:35:37.073Z,56.13
2023-02-12T15:38:07.455Z,56.04
2023-02-12T15:40:34.879Z,56.15
2023-02-12T15:43:07.335Z,56.77
2023-02-12T15:45:36.181Z,56.91
2023-02-12T15:48:15.899Z,57.42
2023-02-12T15:50:55.981Z,57.08
2023-02-12T15:53:25.951Z,56.99
2023-02-12T15:55:52.984Z,57.62
2023-02-12T15:58:24.666Z,58.21
2023-02-12T16:00:52.799Z,58.49
2023-02-12T16:03:31.902Z,58.61
2023-02-12T16:06:18.534Z,58.51
2023-02-12T16:08:49.476Z,58.62
2023-02-12T16:11:23.194Z,58.95
2023-02-12T16:13:54.076Z,59.31
2023-02-12T16:16:28.933Z,58.98
2023-02-12T16:19:26.327Z,59.15
2023-02-12T16:22:06.302Z,59.44
2023-02-12T16:24:39.998Z,59.65
2023-02-12T16:27:18.923Z,59.77
2023-02-12T16:29:57.971Z,59.88
2023-02-12T16:32:42.324Z,60.17
2023-02-12T16:35:12.122Z,60.33
2023-02-12T16:37:38.746Z,60.23
2023-02-12T16:40:17.536Z,60.29
2023-02-12T16:42:46.988Z,60.29
2023-02-12T16:45:35.258Z,60.52
2023-02-12T16:48:07.677Z,60.77
2023-02-12T16:50:43.552Z,60.98
2023-02-12T16:53:33.462Z,61.28
2023-02-12T16:56:01.523Z,61.15
2023-02-12T16:58:28.550Z,61.37
2023-02-12T17:00:57.203Z,61.82
2023-02-12T17:03:24.598Z,61.84
2023-02-12T17:05:52.423Z,61.76
2023-02-12T17:08:22.237Z,61.90
2023-02-12T17:10:48.927Z,62.01
2023-02-12T17:13:16.246Z,62.29
2023-02-12T17:15:49.737Z,62.53
2023-02-12T17:18:18.178Z,62.33
2023-02-12T17:20:51.666Z,62.30
2023-02-12T17:23:18.519Z,62.78
2023-02-12T17:25:45.225Z,62.99
2023-02-12T17:28:12.443Z,63.34
2023-02-12T17:30:39.238Z,63.08
2023-02-12T17:33:05.934Z,63.45
2023-02-12T17:35:32.579Z,63.37
2023-02-12T17:37:59.308Z,63.25
2023-02-12T17:40:26.062Z,63.33
2023-02-12T17:42:52.730Z,63.11
2023-02-12T17:45:19.503Z,63.28
2023-02-12T17:47:46.507Z,63.52
2023-02-12T17:50:15.522Z,64.07
2023-02-12T17:52:42.968Z,64.42
2023-02-12T17:55:14.911Z,64.07
2023-02-12T17:57:41.606Z,64.79
2023-02-12T18:00:10.373Z,64.70
2023-02-12T18:02:39.981Z,64.63
2023-02-12T18:05:07.220Z,64.64
2023-02-12T18:07:35.465Z,64.33
2023-02-12T18:10:02.215Z,64.51
2023-02-12T18:12:30.818Z,64.57
2023-02-12T18:14:58.548Z,64.93
2023-02-12T18:17:25.524Z,64.53
2023-02-12T18:19:53.330Z,64.82
2023-02-12T18:22:20.699Z,65.02
2023-02-12T18:24:47.690Z,64.82
2023-02-12T18:27:15.559Z,64.76
2023-02-12T18:29:42.253Z,64.93
2023-02-12T18:32:14.404Z,64.62
2023-02-12T18:34:42.564Z,64.71
2023-02-12T18:37:11.047Z,64.75
2023-02-12T18:39:37.951Z,65.44
2023-02-12T18:42:05.348Z,64.97
2023-02-12T18:44:32.285Z,65.19
2023-02-12T18:46:59.984Z,65.28
2023-02-12T18:49:28.003Z,65.03
2023-02-12T18:51:54.992Z,65.81
2023-02-12T18:54:22.471Z,65.33
2023-02-12T18:56:51.525Z,65.55
2023-02-12T18:59:18.595Z,65.43
2023-02-12T19:01:47.117Z,65.45
2023-02-12T19:04:16.029Z,66.54
2023-02-12T19:06:46.128Z,65.86
2023-02-12T19:09:16.524Z,65.97
2023-02-12T19:11:46.388Z,66.67
2023-02-12T19:14:14.647Z,65.80
2023-02-12T19:16:42.025Z,66.47
2023-02-12T19:19:08.977Z,66.36
2023-02-12T19:21:35.846Z,66.47
2023-02-12T19:24:04.741Z,66.62
2023-02-12T19:26:33.628Z,66.92
2023-02-12T19:29:01.259Z,67.25
2023-02-12T19:31:33.791Z,67.21
2023-02-12T19:34:03.746Z,67.53
2023-02-12T19:36:33.617Z,67.53
2023-02-12T19:39:00.882Z,67.22
2023-02-12T19:41:29.975Z,67.64
2023-02-12T19:43:58.798Z,67.16
2023-02-12T19:46:30.003Z,67.71
2023-02-12T19:48:59.510Z,68.26
2023-02-12T19:51:27.682Z,67.70
2023-02-12T19:53:54.402Z,68.21
2023-02-12T19:56:21.259Z,67.47
2023-02-12T19:58:47.934Z,67.88
2023-02-12T20:01:17.838Z,67.76
2023-02-12T20:03:46.260Z,67.63
2023-02-12T20:06:19.437Z,67.77
2023-02-12T20:08:46.266Z,67.49
2023-02-12T20:11:17.563Z,67.64
2023-02-12T20:13:44.681Z,68.88
2023-02-12T20:16:17.836Z,68.15
2023-02-12T20:18:46.707Z,68.22
2023-02-12T20:21:20.392Z,67.99
2023-02-12T20:23:47.116Z,68.83
2023-02-12T20:26:15.435Z,68.55
2023-02-12T20:28:43.039Z,68.85
2023-02-12T20:31:15.567Z,69.18
2023-02-12T20:33:43.255Z,68.78
2023-02-12T20:36:13.684Z,69.37
2023-02-12T20:38:42.033Z,68.86
2023-02-12T20:41:09.989Z,69.01
2023-02-12T20:43:38.534Z,69.95
2023-02-12T20:46:11.891Z,69.95
2023-02-12T20:48:39.322Z,70.58
2023-02-12T20:51:08.361Z,69.92
2023-02-12T20:53:35.802Z,70.23
2023-02-12T20:56:17.729Z,70.37
2023-02-12T20:58:45.952Z,70.12
2023-02-12T21:01:21.360Z,70.41
2023-02-12T21:03:49.396Z,71.05
2023-02-12T21:06:16.028Z,70.10
2023-02-12T21:08:43.103Z,69.62
2023-02-12T21:11:15.298Z,70.16
2023-02-12T21:13:50.396Z,69.53
2023-02-12T21:16:32.093Z,70.23
2023-02-12T21:18:59.351Z,70.01
2023-02-12T21:21:34.952Z,69.98
2023-02-12T21:24:03.993Z,70.24
2023-02-12T21:26:32.004Z,69.90
2023-02-12T21:29:00.229Z,69.96
2023-02-12T21:31:38.509Z,70.04
2023-02-12T21:34:06.791Z,70.65
2023-02-12T21:36:39.950Z,70.50
2023-02-12T21:39:09.184Z,70.71
2023-02-12T21:41:38.095Z,70.89
2023-02-12T21:44:15.709Z,70.33
2023-02-12T21:46:43.408Z,71.05
2023-02-12T21:49:12.399Z,72.10
2023-02-12T21:51:41.875Z,71.10
2023-02-12T21:54:11.228Z,72.05
2023-02-12T21:56:39.314Z,71.68
2023-02-12T21:59:08.506Z,71.61
2023-02-12T22:01:38.041Z,71.59
2023-02-12T22:04:06.658Z,70.86
2023-02-12T22:06:37.243Z,71.71
2023-02-12T22:09:08.789Z,70.85
2023-02-12T22:11:36.897Z,71.51
2023-02-12T22:14:04.648Z,71.54
2023-02-12T22:16:31.749Z,71.56
2023-02-12T22:19:00.482Z,71.77
2023-02-12T22:21:34.947Z,71.34
2023-02-12T22:24:03.025Z,71.37
2023-02-12T22:26:31.387Z,71.19
2023-02-12T22:29:01.788Z,70.97
2023-02-12T22:31:31.444Z,71.29
2023-02-12T22:34:00.780Z,70.56
2023-02-12T22:36:28.540Z,71.26
2023-02-12T22:38:58.261Z,70.24
2023-02-12T22:41:27.567Z,70.96
2023-02-12T22:43:54.515Z,70.95
2023-02-12T22:46:21.408Z,70.66
2023-02-12T22:48:48.067Z,71.07
2023-02-12T22:51:21.032Z,70.84
2023-02-12T22:53:47.767Z,71.15
2023-02-12T22:56:15.023Z,70.72
2023-02-12T22:58:42.167Z,70.31
2023-02-12T23:01:12.109Z,70.86
2023-02-12T23:03:38.888Z,70.62
2023-02-12T23:06:16.739Z,70.96
2023-02-12T23:08:44.284Z,70.84
2023-02-12T23:11:11.807Z,70.58
2023-02-12T23:13:38.800Z,71.01
2023-02-12T23:16:05.740Z,70.87
2023-02-12T23:18:32.928Z,70.27
2023-02-12T23:21:00.409Z,70.76
2023-02-12T23:23:27.467Z,71.10
2023-02-12T23:25:54.690Z,70.94
2023-02-12T23:28:21.947Z,70.54
2023-02-12T23:30:49.848Z,70.43
2023-02-12T23:33:16.774Z,70.18
2023-02-12T23:35:44.528Z,70.96
2023-02-12T23:38:11.473Z,70.44
2023-02-12T23:40:38.839Z,70.77
2023-02-12T23:43:05.616Z,70.44
2023-02-12T23:45:32.297Z,71.36
2023-02-12T23:47:59.274Z,70.72
2023-02-12T23:50:25.923Z,71.12
2023-02-12T23:52:52.530Z,71.11
2023-02-12T23:55:20.204Z,71.83
2023-02-12T23:57:47.807Z,71.80
